Time;durP1;ratioP1;P1;durP2;ratioP2;P2;SDS_P1;SDS_P2;PMS_P1;PMS_P2;Temp;Humidity;BMP_temperature;BMP_pressure;BME280_temperature;BME280_humidity;BME280_pressure;Samples;Min_cycle;Max_cycle;Signal;HPM_P1;HPM_P2
2022/11/06 00:00:24;;;;;;;13.02;4.93;;;;;;;9.71;86.34;96299.69;5095504;28;20126;-61
2022/11/06 00:02:51;;;;;;;8.32;5.18;;;;;;;9.73;86.16;96297.84;5095419;28;20052;-61
2022/11/06 00:08:11;;;;;;;8.20;4.72;;;;;;;9.82;86.22;96291.44;5058868;28;20414;-61
2022/11/06 00:10:38;;;;;;;8.65;4.90;;;;;;;9.82;85.89;96285.38;5095352;28;20052;-61
2022/11/06 00:13:05;;;;;;;7.32;4.18;;;;;;;9.72;86.53;96280.50;5095257;28;20054;-60
2022/11/06 00:15:34;;;;;;;7.18;4.40;;;;;;;9.72;87.36;96280.50;5095164;28;20040;-61
2022/11/06 00:18:02;;;;;;;7.60;4.82;;;;;;;9.77;87.58;96282.94;5095026;28;20123;-61
2022/11/06 00:20:30;;;;;;;11.02;5.43;;;;;;;9.83;87.30;96282.69;5095138;28;20052;-60
2022/11/06 00:22:58;;;;;;;7.75;4.72;;;;;;;9.87;87.38;96286.03;5094748;28;20063;-60
2022/11/06 00:25:27;;;;;;;7.22;4.65;;;;;;;9.91;87.14;96287.63;5095051;28;20055;-61
2022/11/06 00:27:55;;;;;;;12.60;5.65;;;;;;;9.90;87.32;96295.53;5094990;28;20054;-60
2022/11/06 00:30:27;;;;;;;11.02;5.38;;;;;;;9.88;86.78;96284.28;5094882;28;20056;-60
2022/11/06 00:32:57;;;;;;;10.98;4.90;;;;;;;9.86;86.77;96290.41;5094807;28;20044;-61
2022/11/06 00:35:24;;;;;;;8.90;5.25;;;;;;;9.86;87.07;96292.16;5094700;28;20089;-60
2022/11/06 00:37:53;;;;;;;5.78;4.50;;;;;;;9.91;86.56;96292.84;5094591;28;20052;-61
2022/11/06 00:40:20;;;;;;;12.95;5.88;;;;;;;9.99;87.56;96287.31;5094673;28;20052;-60
2022/11/06 00:42:48;;;;;;;17.45;6.28;;;;;;;10.21;87.47;96291.69;5094426;28;20056;-60
2022/11/06 00:45:15;;;;;;;13.38;5.43;;;;;;;10.33;86.24;96285.09;5094648;28;20047;-61
2022/11/06 00:47:42;;;;;;;9.80;4.85;;;;;;;10.42;86.17;96284.69;5094601;28;20105;-61
2022/11/06 00:50:11;;;;;;;7.47;4.57;;;;;;;10.53;85.08;96275.63;5094622;28;20130;-61
2022/11/06 00:52:38;;;;;;;9.63;4.60;;;;;;;10.49;83.78;96274.88;5094564;28;20052;-61
2022/11/06 00:55:05;;;;;;;6.65;4.65;;;;;;;10.40;83.24;96283.06;5094410;28;20048;-61
2022/11/06 00:57:32;;;;;;;8.73;3.80;;;;;;;10.32;83.53;96278.16;5094355;28;20101;-61
2022/11/06 01:00:00;;;;;;;9.77;4.95;;;;;;;10.39;83.27;96278.75;5094268;28;20411;-60
2022/11/06 01:02:27;;;;;;;9.10;4.80;;;;;;;10.35;82.68;96273.66;5094265;28;20048;-61
2022/11/06 01:04:54;;;;;;;7.82;4.50;;;;;;;10.28;82.85;96279.19;5094242;28;20143;-60
2022/11/06 01:07:22;;;;;;;11.55;4.22;;;;;;;10.28;82.49;96280.06;5094164;28;20481;-61
2022/11/06 01:09:50;;;;;;;8.40;4.85;;;;;;;10.27;81.99;96275.75;5094098;28;20048;-61
2022/11/06 01:12:17;;;;;;;4.40;3.88;;;;;;;10.12;82.16;96274.63;5094051;28;20123;-61
2022/11/06 01:14:45;;;;;;;10.38;4.47;;;;;;;9.99;81.74;96282.94;5094077;28;20421;-61
2022/11/06 01:17:13;;;;;;;5.40;3.95;;;;;;;9.85;81.88;96274.81;5094003;28;20054;-61
2022/11/06 01:19:40;;;;;;;6.53;4.40;;;;;;;9.76;83.54;96257.72;5093892;28;20486;-60
2022/11/06 01:22:07;;;;;;;7.38;4.47;;;;;;;9.75;84.63;96258.63;5093927;28;20478;-60
2022/11/06 01:24:36;;;;;;;12.70;5.53;;;;;;;9.68;84.60;96259.78;5093663;28;20117;-60
2022/11/06 01:27:03;;;;;;;7.90;4.80;;;;;;;9.73;84.00;96265.69;5093772;28;20134;-61
2022/11/06 01:29:30;;;;;;;7.28;5.13;;;;;;;9.72;83.99;96263.97;5093711;28;20048;-61
2022/11/06 01:31:57;;;;;;;17.55;4.57;;;;;;;9.75;83.54;96263.00;5093697;28;20044;-60
2022/11/06 01:34:24;;;;;;;8.88;4.78;;;;;;;9.68;83.71;96263.25;5093647;28;20127;-61
2022/11/06 01:36:51;;;;;;;6.70;4.80;;;;;;;9.63;83.10;96266.94;5093618;28;20089;-61
2022/11/06 01:39:18;;;;;;;6.10;4.10;;;;;;;9.52;82.89;96265.59;5093435;28;20052;-60
2022/11/06 01:41:50;;;;;;;8.65;5.28;;;;;;;9.51;83.71;96274.31;5093770;28;20127;-60
2022/11/06 01:44:54;;;;;;;9.23;4.55;;;;;;;9.44;84.32;96273.72;5093473;28;20502;-60
2022/11/06 01:47:24;;;;;;;8.07;4.88;;;;;;;9.42;84.08;96270.31;5093511;28;20076;-60
2022/11/06 01:49:53;;;;;;;9.05;5.57;;;;;;;9.41;83.98;96272.97;5093405;28;20051;-60
2022/11/06 01:52:22;;;;;;;17.83;5.80;;;;;;;9.34;84.82;96273.19;5093396;28;20051;-61
2022/11/06 01:54:54;;;;;;;7.57;5.15;;;;;;;9.39;83.95;96280.88;5092912;28;20504;-60
2022/11/06 01:57:23;;;;;;;7.30;4.57;;;;;;;9.43;83.91;96272.03;5093325;28;20075;-60
2022/11/06 01:59:51;;;;;;;9.48;5.28;;;;;;;9.39;83.35;96266.97;5093206;28;20043;-60
2022/11/06 02:02:19;;;;;;;9.00;5.78;;;;;;;9.33;83.25;96275.91;5093314;28;20128;-60
2022/11/06 02:04:49;;;;;;;11.40;5.22;;;;;;;9.29;82.90;96272.53;5093367;28;20121;-60
2022/11/06 02:07:18;;;;;;;12.55;5.18;;;;;;;9.27;82.52;96266.50;5093347;28;20482;-60
2022/11/06 02:09:45;;;;;;;11.13;5.40;;;;;;;9.26;82.21;96267.44;5093202;28;20048;-60
2022/11/06 02:12:25;;;;;;;9.90;5.30;;;;;;;9.27;82.59;96269.13;5093114;28;20559;-60
2022/11/06 02:15:03;;;;;;;8.07;5.15;;;;;;;9.22;82.50;96273.69;5093160;28;20079;-61
2022/11/06 02:17:46;;;;;;;13.20;5.88;;;;;;;9.19;82.57;96266.81;5092996;28;20079;-60
2022/11/06 02:20:20;;;;;;;12.10;5.78;;;;;;;9.13;82.71;96269.66;5093040;28;20079;-60
2022/11/06 02:23:17;;;;;;;6.80;5.13;;;;;;;9.14;82.67;96268.72;5093010;28;20051;-61
2022/11/06 02:25:49;;;;;;;9.77;5.30;;;;;;;9.15;82.43;96264.38;5076110;28;20131;-60
2022/11/06 02:28:25;;;;;;;8.27;5.18;;;;;;;9.14;82.55;96265.25;5092987;28;20502;-60
2022/11/06 02:30:55;;;;;;;8.30;5.65;;;;;;;9.12;83.06;96270.53;5093076;28;20494;-60
2022/11/06 02:33:29;;;;;;;13.27;5.22;;;;;;;9.10;82.52;96269.75;5093011;28;20490;-61
2022/11/06 02:36:01;;;;;;;10.02;5.32;;;;;;;9.03;82.04;96265.66;5092958;28;20482;-61
2022/11/06 02:38:34;;;;;;;13.13;6.00;;;;;;;9.07;81.65;96275.09;5092872;28;20052;-60
2022/11/06 02:41:07;;;;;;;11.77;5.22;;;;;;;8.96;81.85;96265.03;5092754;28;20489;-59
2022/11/06 02:43:40;;;;;;;8.00;5.32;;;;;;;8.88;82.93;96267.91;5092925;28;20048;-60
2022/11/06 02:46:11;;;;;;;9.15;6.00;;;;;;;8.84;82.93;96263.72;5092824;28;20056;-61
2022/11/06 02:48:44;;;;;;;7.30;4.90;;;;;;;8.84;82.44;96267.19;5092787;28;20105;-60
2022/11/06 02:51:18;;;;;;;11.52;5.72;;;;;;;8.75;82.96;96261.41;5092780;28;20090;-60
2022/11/06 02:53:47;;;;;;;12.65;6.28;;;;;;;8.73;83.01;96258.84;5092768;28;20048;-60
2022/11/06 02:56:18;;;;;;;13.45;5.65;;;;;;;8.66;82.81;96268.66;5092930;28;20126;-60
2022/11/06 02:58:52;;;;;;;10.95;5.45;;;;;;;8.66;82.36;96265.19;5092733;28;20080;-60
2022/11/06 03:01:24;;;;;;;13.23;5.40;;;;;;;8.69;83.15;96270.31;5092646;28;20046;-60
2022/11/06 03:03:55;;;;;;;13.70;5.78;;;;;;;8.62;83.05;96268.81;5092656;28;20076;-60
2022/11/06 03:06:31;;;;;;;10.27;6.55;;;;;;;8.58;83.06;96266.31;5092738;28;20066;-60
2022/11/06 03:09:04;;;;;;;9.18;5.40;;;;;;;8.57;82.53;96266.38;5096411;28;20052;-60
2022/11/06 03:11:34;;;;;;;11.18;6.00;;;;;;;8.52;82.96;96265.66;5096415;28;20444;-60
2022/11/06 03:14:10;;;;;;;13.10;6.33;;;;;;;8.50;83.25;96272.66;5096428;28;20080;-60
2022/11/06 03:16:48;;;;;;;10.13;6.03;;;;;;;8.52;84.28;96268.28;5096458;28;20132;-60
2022/11/06 03:19:26;;;;;;;9.82;6.20;;;;;;;8.52;84.66;96268.28;5096310;28;20549;-60
2022/11/06 03:22:02;;;;;;;13.43;6.53;;;;;;;8.54;84.49;96266.47;5096289;28;20498;-60
2022/11/06 03:24:34;;;;;;;11.10;6.03;;;;;;;8.59;84.19;96262.81;5096045;28;20052;-60
2022/11/06 03:27:08;;;;;;;8.55;5.95;;;;;;;8.59;83.98;96262.81;5096060;28;20561;-60
2022/11/06 03:29:41;;;;;;;10.38;6.13;;;;;;;8.58;85.18;96255.88;5096022;28;20054;-60
2022/11/06 03:32:14;;;;;;;11.93;6.40;;;;;;;8.59;85.51;96260.22;5095992;28;20125;-60
2022/11/06 03:34:48;;;;;;;14.52;6.38;;;;;;;8.63;86.60;96265.31;5096110;28;20052;-60
2022/11/06 03:37:19;;;;;;;12.85;6.05;;;;;;;8.68;86.28;96264.25;5095944;28;20048;-60
2022/11/06 03:39:51;;;;;;;11.30;6.30;;;;;;;8.69;87.96;96270.31;5095924;28;20122;-59
2022/11/06 03:42:23;;;;;;;12.35;7.22;;;;;;;8.66;87.34;96270.41;5095813;28;20128;-60
2022/11/06 03:44:56;;;;;;;7.82;5.95;;;;;;;8.65;87.06;96277.41;5095773;28;20056;-60
2022/11/06 03:47:28;;;;;;;12.02;6.55;;;;;;;8.68;86.52;96272.09;5095832;28;20048;-60
2022/11/06 03:50:01;;;;;;;10.20;6.47;;;;;;;8.66;86.12;96268.66;5095811;28;20563;-59
2022/11/06 03:52:33;;;;;;;8.82;5.97;;;;;;;8.66;86.05;96266.06;5095705;28;20086;-60
2022/11/06 03:55:05;;;;;;;9.27;6.03;;;;;;;8.64;85.81;96267.84;5095566;28;20048;-60
2022/11/06 03:57:41;;;;;;;8.98;5.88;;;;;;;8.72;85.68;96280.63;5095501;28;20052;-61
2022/11/06 04:00:11;;;;;;;10.35;5.70;;;;;;;8.74;85.97;96277.97;5095406;28;20080;-61
2022/11/06 04:02:39;;;;;;;;;;;;;;;8.69;87.11;96286.81;5095917;28;20135;-61
2022/11/06 04:05:11;;;;;;;13.20;6.35;;;;;;;8.71;87.73;96284.16;5095571;28;19920;-61
2022/11/06 04:13:55;;;;;;;17.42;7.32;;;;;;;8.61;88.49;96275.78;5095372;28;20094;-61
2022/11/06 04:16:04;;;;;;;9.52;6.35;;;;;;;8.71;88.03;96279.81;5095336;28;20047;-61
2022/11/06 04:18:32;;;;;;;10.80;7.20;;;;;;;8.70;88.42;96280.69;5094830;28;20076;-61
2022/11/06 04:21:24;;;;;;;11.45;6.13;;;;;;;8.67;88.98;96285.19;5095124;28;20135;-61
2022/11/06 04:26:57;;;;;;;10.52;6.10;;;;;;;8.71;90.09;96286.78;5095141;28;20051;-61
2022/11/06 04:29:36;;;;;;;13.55;7.38;;;;;;;8.67;90.68;96279.97;5095041;28;20071;-61
2022/11/06 04:32:12;;;;;;;9.48;6.43;;;;;;;8.75;90.67;96284.88;5094885;28;20098;-60
2022/11/06 04:34:45;;;;;;;9.80;7.43;;;;;;;8.79;90.21;96281.28;5094977;28;20048;-61
2022/11/06 04:37:21;;;;;;;17.85;6.47;;;;;;;8.90;91.19;96278.28;5094867;28;20044;-61
2022/11/06 04:39:56;;;;;;;10.40;6.85;;;;;;;9.01;90.80;96284.00;5094698;28;20478;-61
2022/11/06 04:42:32;;;;;;;8.50;6.43;;;;;;;9.07;90.65;96291.59;5094629;28;20051;-61
2022/11/06 04:45:04;;;;;;;17.30;7.65;;;;;;;9.16;91.23;96287.81;5094625;28;20461;-60
2022/11/06 04:47:35;;;;;;;15.15;7.32;;;;;;;9.17;91.27;96293.84;5094611;28;20048;-60
2022/11/06 04:50:03;;;;;;;12.18;7.00;;;;;;;9.15;91.16;96296.53;5094559;28;20040;-60
2022/11/06 04:52:30;;;;;;;9.80;6.68;;;;;;;9.15;91.32;96295.69;5094720;28;20128;-60
2022/11/06 04:54:58;;;;;;;10.20;7.30;;;;;;;9.17;90.70;96297.31;5094459;28;20055;-60
2022/11/06 04:57:28;;;;;;;13.90;7.28;;;;;;;9.22;89.81;96302.38;5094363;28;20120;-61
2022/11/06 04:59:55;;;;;;;11.70;6.43;;;;;;;9.20;89.47;96296.34;5094272;28;20059;-61
2022/11/06 05:02:23;;;;;;;10.88;6.53;;;;;;;9.23;89.64;96294.50;5094299;28;20047;-60
2022/11/06 05:04:51;;;;;;;10.25;6.13;;;;;;;9.22;89.37;96295.38;5094330;28;20212;-60
2022/11/06 05:07:19;;;;;;;13.82;7.63;;;;;;;9.25;90.29;96289.22;5094238;28;20052;-61
2022/11/06 05:09:46;;;;;;;13.57;6.35;;;;;;;9.30;90.07;96289.06;5094108;28;20134;-61
2022/11/06 05:12:13;;;;;;;12.43;8.10;;;;;;;9.28;90.59;96294.34;5094142;28;20555;-60
2022/11/06 05:14:40;;;;;;;13.75;7.88;;;;;;;9.30;90.52;96296.88;5094113;28;20052;-60
2022/11/06 05:17:08;;;;;;;10.45;7.03;;;;;;;9.29;90.92;96298.63;5094056;28;20416;-60
2022/11/06 05:19:35;;;;;;;11.50;7.45;;;;;;;9.32;91.54;96297.66;5094055;28;20040;-60
2022/11/06 05:24:48;;;;;;;11.75;8.07;;;;;;;9.44;93.65;96301.59;5093992;28;20055;-60
2022/11/06 05:27:15;;;;;;;13.45;8.25;;;;;;;9.50;93.49;96305.72;5093767;28;20048;-60
2022/11/06 05:29:43;;;;;;;14.85;9.02;;;;;;;9.65;96.01;96304.28;5093144;28;20113;-60
2022/11/06 05:32:10;;;;;;;19.45;10.18;;;;;;;9.73;96.53;96304.88;5093730;28;20040;-60
2022/11/06 05:34:37;;;;;;;21.33;9.75;;;;;;;9.79;96.39;96316.84;5093699;28;20055;-60
2022/11/06 05:37:06;;;;;;;17.90;10.15;;;;;;;9.85;95.93;96314.00;5093677;28;20051;-60
2022/11/06 05:39:33;;;;;;;20.95;9.80;;;;;;;9.97;95.34;96312.66;5093856;28;20060;-60
2022/11/06 05:42:01;;;;;;;16.85;9.55;;;;;;;10.07;95.43;96320.97;5093658;28;20052;-60
2022/11/06 05:44:28;;;;;;;17.35;10.63;;;;;;;10.22;96.76;96316.91;5093543;28;20134;-60
2022/11/06 05:46:55;;;;;;;17.17;10.25;;;;;;;10.37;96.35;96320.66;5093462;28;20058;-60
2022/11/06 05:49:23;;;;;;;24.38;11.38;;;;;;;10.49;95.62;96316.72;5093504;28;20044;-60
2022/11/06 05:51:50;;;;;;;47.22;22.35;;;;;;;10.63;96.71;96317.91;5093378;28;20083;-60
2022/11/06 05:54:18;;;;;;;22.90;13.32;;;;;;;10.79;97.19;96312.88;5093461;28;20098;-61
2022/11/06 05:56:45;;;;;;;28.52;15.55;;;;;;;10.94;96.00;96327.09;5093415;28;20098;-60
2022/11/06 05:59:13;;;;;;;22.00;12.82;;;;;;;11.04;94.63;96332.75;5093369;28;20087;-61
2022/11/06 06:01:40;;;;;;;21.10;11.07;;;;;;;11.12;94.66;96333.28;5093318;28;20470;-60
2022/11/06 06:04:07;;;;;;;20.67;10.93;;;;;;;11.24;93.59;96338.00;5093536;28;20513;-60
2022/11/06 06:06:34;;;;;;;21.42;12.52;;;;;;;11.32;92.70;96336.81;5093090;28;20048;-60
2022/11/06 06:09:01;;;;;;;20.55;8.98;;;;;;;11.38;92.11;96342.59;5093283;28;20079;-60
2022/11/06 06:11:30;;;;;;;13.02;7.85;;;;;;;11.35;87.32;96352.38;5093191;28;20051;-60
2022/11/06 06:13:57;;;;;;;12.75;7.13;;;;;;;11.33;85.80;96352.47;5093388;28;20051;-61
2022/11/06 06:16:24;;;;;;;11.25;6.70;;;;;;;11.29;84.98;96355.28;5093188;28;20048;-60
2022/11/06 06:18:52;;;;;;;13.27;7.35;;;;;;;11.30;84.41;96356.97;5093034;28;20051;-61
2022/11/06 06:21:19;;;;;;;14.40;7.03;;;;;;;11.26;83.41;96364.13;5093087;28;20083;-61
2022/11/06 06:23:46;;;;;;;8.30;6.15;;;;;;;11.31;82.35;96363.91;5092905;28;20555;-61
2022/11/06 06:26:14;;;;;;;12.57;7.38;;;;;;;11.32;83.83;96366.44;5093118;28;20406;-60
2022/11/06 06:28:43;;;;;;;11.40;7.63;;;;;;;11.42;83.40;96379.16;5093060;28;20084;-60
2022/11/06 06:31:11;;;;;;;14.30;7.25;;;;;;;11.44;82.44;96379.94;5093096;28;20135;-60
2022/11/06 06:33:39;;;;;;;11.15;6.97;;;;;;;11.54;82.14;96383.84;5092997;28;20040;-61
2022/11/06 06:36:07;;;;;;;9.35;7.35;;;;;;;11.58;82.04;96381.94;5092957;28;20047;-60
2022/11/06 06:38:35;;;;;;;10.80;7.15;;;;;;;11.63;81.64;96393.06;5093017;28;20055;-61
2022/11/06 06:41:03;;;;;;;14.60;8.77;;;;;;;11.70;82.48;96397.09;5093756;28;20052;-61
2022/11/06 06:43:30;;;;;;;19.95;8.45;;;;;;;11.74;81.88;96398.66;5096986;28;20082;-60
2022/11/06 06:46:02;;;;;;;16.30;9.20;;;;;;;11.87;84.43;96401.56;5097076;28;20044;-61
2022/11/06 06:48:31;;;;;;;14.82;9.40;;;;;;;12.02;85.53;96404.44;5096946;28;20437;-60
2022/11/06 06:51:00;;;;;;;12.68;8.57;;;;;;;12.16;86.05;96403.81;5096842;28;20521;-60
2022/11/06 06:53:28;;;;;;;10.95;7.50;;;;;;;12.23;83.38;96400.00;5096891;28;20048;-60
2022/11/06 06:55:57;;;;;;;10.77;7.13;;;;;;;12.27;83.88;96395.44;5096797;28;20486;-60
2022/11/06 06:58:26;;;;;;;10.80;6.75;;;;;;;12.32;83.80;96397.84;5096708;28;20131;-60
2022/11/06 07:00:54;;;;;;;15.20;7.93;;;;;;;12.38;84.58;96401.03;5096693;28;20051;-61
2022/11/06 07:03:22;;;;;;;10.38;7.15;;;;;;;12.50;84.57;96398.75;5096744;28;20082;-60
2022/11/06 07:05:57;;;;;;;11.20;7.13;;;;;;;12.66;83.94;96398.84;5096575;28;20120;-60
2022/11/06 07:08:28;;;;;;;12.23;7.22;;;;;;;12.84;83.04;96407.59;5096501;28;20044;-60
2022/11/06 07:11:00;;;;;;;12.20;8.40;;;;;;;12.95;82.42;96407.09;5096597;28;20084;-60
2022/11/06 07:13:27;;;;;;;11.00;7.25;;;;;;;13.06;81.96;96410.94;5096600;28;20055;-61
2022/11/06 07:15:55;;;;;;;15.88;7.30;;;;;;;13.19;81.56;96411.16;5096807;28;20101;-61
2022/11/06 07:18:25;;;;;;;13.73;8.30;;;;;;;13.29;80.57;96415.03;5096329;28;20083;-60
2022/11/06 07:20:53;;;;;;;13.63;7.67;;;;;;;13.45;80.45;96416.88;5096280;28;20063;-60
2022/11/06 07:23:20;;;;;;;14.98;7.63;;;;;;;13.59;79.56;96416.19;5096106;28;20109;-60
2022/11/06 07:25:53;;;;;;;17.58;8.05;;;;;;;13.73;78.12;96416.28;5096341;28;20052;-61
2022/11/06 07:28:21;;;;;;;13.38;6.55;;;;;;;13.99;76.77;96415.84;5096132;28;20105;-60
2022/11/06 07:30:50;;;;;;;11.52;5.72;;;;;;;14.20;76.18;96412.97;5096296;28;20048;-60
2022/11/06 07:33:17;;;;;;;13.27;5.72;;;;;;;14.40;74.42;96411.88;5096173;28;20052;-61
2022/11/06 07:35:46;;;;;;;10.25;5.13;;;;;;;14.52;72.61;96419.09;5095959;28;20052;-60
2022/11/06 07:38:15;;;;;;;8.35;4.93;;;;;;;14.72;71.57;96418.91;5095883;28;20097;-60
2022/11/06 07:40:44;;;;;;;10.13;5.68;;;;;;;14.84;70.90;96428.75;5095896;28;20505;-60
2022/11/06 07:43:14;;;;;;;13.18;4.65;;;;;;;14.99;68.43;96426.19;5095789;28;20059;-61
2022/11/06 07:45:45;;;;;;;11.83;4.27;;;;;;;15.11;67.80;96419.38;5095831;28;20051;-60
2022/11/06 07:48:14;;;;;;;15.73;5.47;;;;;;;15.28;69.17;96423.63;5095806;28;20054;-60
2022/11/06 07:50:42;;;;;;;12.18;4.30;;;;;;;15.41;67.01;96421.13;5095678;28;20054;-61
2022/11/06 07:53:10;;;;;;;10.65;4.20;;;;;;;15.53;66.75;96422.16;5094950;28;20052;-60
2022/11/06 07:55:38;;;;;;;10.57;5.18;;;;;;;15.68;67.19;96417.75;5095639;28;20093;-61
2022/11/06 07:58:05;;;;;;;10.57;4.47;;;;;;;15.83;66.65;96412.50;5095562;28;20051;-60
2022/11/06 08:00:33;;;;;;;10.60;4.80;;;;;;;15.91;64.06;96424.28;5095352;28;20044;-61
2022/11/06 08:03:02;;;;;;;11.35;5.00;;;;;;;16.02;62.27;96414.88;5095900;28;20082;-61
2022/11/06 08:05:31;;;;;;;10.73;4.00;;;;;;;16.12;62.86;96413.38;5095324;28;20074;-61
2022/11/06 08:07:58;;;;;;;11.38;4.45;;;;;;;16.20;61.39;96414.69;5095394;28;20048;-61
2022/11/06 08:10:29;;;;;;;9.35;4.28;;;;;;;16.25;61.22;96407.31;5095270;28;20087;-60
2022/11/06 08:12:56;;;;;;;10.68;4.00;;;;;;;16.28;61.13;96409.75;5095356;28;20050;-60
2022/11/06 08:15:25;;;;;;;6.80;3.55;;;;;;;16.27;60.07;96411.56;5095307;28;20512;-61
2022/11/06 08:17:53;;;;;;;9.90;4.63;;;;;;;16.27;60.07;96408.06;5095072;28;20226;-61
2022/11/06 08:20:20;;;;;;;6.55;3.95;;;;;;;16.33;60.23;96406.81;5095307;28;20134;-60
2022/11/06 08:22:48;;;;;;;7.63;4.40;;;;;;;16.37;59.72;96413.59;5094830;28;20047;-60
2022/11/06 08:25:15;;;;;;;8.55;4.13;;;;;;;16.37;60.13;96409.16;5095128;28;20516;-60
2022/11/06 08:27:44;;;;;;;7.88;3.75;;;;;;;16.44;60.13;96412.28;5095054;28;20131;-60
2022/11/06 08:30:12;;;;;;;8.13;3.83;;;;;;;16.52;60.22;96406.50;5095045;28;20074;-60
2022/11/06 08:32:39;;;;;;;10.68;4.60;;;;;;;16.61;59.80;96407.69;5094971;28;20052;-60
2022/11/06 08:35:08;;;;;;;8.00;4.00;;;;;;;16.71;59.88;96405.31;5095004;28;20482;-60
2022/11/06 08:37:37;;;;;;;6.05;3.97;;;;;;;16.73;59.30;96409.53;5094937;28;20124;-60
2022/11/06 08:40:06;;;;;;;7.63;3.95;;;;;;;16.77;59.77;96403.09;5094813;28;20083;-60
2022/11/06 08:42:33;;;;;;;7.93;4.38;;;;;;;16.80;59.35;96407.34;5094554;28;20083;-60
2022/11/06 08:45:02;;;;;;;9.52;4.32;;;;;;;16.78;59.53;96401.31;5094673;28;20056;-61
2022/11/06 08:47:29;;;;;;;12.25;4.50;;;;;;;16.83;59.75;96401.03;5094570;28;20082;-61
2022/11/06 08:49:57;;;;;;;13.73;3.95;;;;;;;16.94;60.50;96414.34;5094641;28;20080;-60
2022/11/06 08:52:24;;;;;;;7.97;4.45;;;;;;;16.99;60.72;96412.28;5094618;28;20052;-61
2022/11/06 08:54:52;;;;;;;6.20;3.47;;;;;;;16.99;59.17;96414.91;5094636;28;20414;-61
2022/11/06 08:57:19;;;;;;;7.45;4.15;;;;;;;16.99;59.08;96416.69;5094403;28;20379;-61
2022/11/06 08:59:46;;;;;;;6.57;3.90;;;;;;;16.95;60.02;96417.84;5094379;28;20048;-61
2022/11/06 09:02:15;;;;;;;5.93;3.78;;;;;;;16.96;60.27;96415.13;5094201;28;20056;-60
2022/11/06 09:04:43;;;;;;;6.63;4.18;;;;;;;16.98;60.20;96425.59;5093315;28;20131;-61
2022/11/06 09:07:10;;;;;;;6.45;4.25;;;;;;;17.02;60.43;96424.44;5094265;28;20044;-60
2022/11/06 09:09:41;;;;;;;10.10;4.25;;;;;;;17.05;60.98;96426.88;5094285;28;20124;-61
2022/11/06 09:12:09;;;;;;;6.00;3.85;;;;;;;17.08;60.53;96424.06;5094241;28;20505;-61
2022/11/06 09:14:38;;;;;;;6.30;4.28;;;;;;;17.15;60.75;96424.47;5094032;28;20054;-61
2022/11/06 09:17:06;;;;;;;9.07;4.18;;;;;;;17.20;60.22;96424.19;5094158;28;20040;-60
2022/11/06 09:19:37;;;;;;;5.32;3.63;;;;;;;17.25;59.75;96422.91;5093990;28;20051;-61
2022/11/06 09:22:05;;;;;;;8.95;4.13;;;;;;;17.39;60.00;96426.44;5093887;28;20135;-60
2022/11/06 09:24:32;;;;;;;5.57;3.78;;;;;;;17.46;59.35;96424.22;5093708;28;20109;-60
2022/11/06 09:27:02;;;;;;;7.53;3.90;;;;;;;17.54;59.62;96427.19;5093974;28;20044;-61
2022/11/06 09:29:31;;;;;;;9.73;3.97;;;;;;;17.61;58.62;96425.81;5094021;28;20078;-60
2022/11/06 09:31:58;;;;;;;11.68;4.07;;;;;;;17.68;58.67;96423.59;5093864;28;20044;-61
2022/11/06 09:34:26;;;;;;;7.75;3.35;;;;;;;17.78;57.71;96429.09;5093794;28;20083;-60
2022/11/06 09:36:54;;;;;;;7.25;3.80;;;;;;;17.72;57.63;96430.38;5093757;28;20109;-61
2022/11/06 09:39:21;;;;;;;6.60;3.90;;;;;;;17.70;58.66;96423.50;5093520;28;20077;-61
2022/11/06 09:41:57;;;;;;;6.88;4.05;;;;;;;17.75;57.96;96426.66;5093572;28;20055;-60
2022/11/06 09:44:40;;;;;;;7.47;4.20;;;;;;;17.89;58.22;96429.22;5084296;28;20463;-61
2022/11/06 09:47:13;;;;;;;9.70;4.15;;;;;;;18.01;57.10;96421.38;5092381;28;20047;-61
2022/11/06 09:49:46;;;;;;;6.95;3.58;;;;;;;18.03;56.76;96425.59;5093445;28;20044;-61
2022/11/06 09:52:22;;;;;;;8.50;3.92;;;;;;;18.09;56.46;96420.84;5093502;28;20048;-61
2022/11/06 09:54:54;;;;;;;6.43;3.67;;;;;;;18.04;56.45;96429.09;5091494;28;20081;-56
2022/11/06 09:57:28;;;;;;;5.18;3.90;;;;;;;17.91;56.91;96419.34;5092673;28;20138;-58
2022/11/06 09:59:56;;;;;;;6.90;4.03;;;;;;;17.92;57.07;96417.56;5093382;28;20143;-61
2022/11/06 10:02:30;;;;;;;4.65;3.47;;;;;;;17.99;56.83;96423.25;5093367;28;20105;-61
2022/11/06 10:05:06;;;;;;;5.35;3.50;;;;;;;18.08;56.27;96422.63;5091178;28;20052;-53
2022/11/06 10:07:38;;;;;;;5.32;3.38;;;;;;;18.14;55.98;96416.06;5093205;28;20040;-57
2022/11/06 10:10:08;;;;;;;4.57;3.38;;;;;;;18.23;55.94;96420.72;5093147;28;20044;-64
2022/11/06 10:12:47;;;;;;;5.68;3.88;;;;;;;18.35;55.17;96421.66;5093260;28;20401;-60
2022/11/06 10:15:23;;;;;;;6.10;3.80;;;;;;;18.42;54.79;96416.75;5087836;28;20045;-64
2022/11/06 10:17:59;;;;;;;7.63;4.13;;;;;;;18.50;54.42;96422.34;5072915;28;20041;-61
2022/11/06 10:20:32;;;;;;;8.65;4.35;;;;;;;18.50;54.18;96416.19;5072982;28;20099;-64
2022/11/06 10:23:06;;;;;;;5.28;3.47;;;;;;;18.49;54.25;96419.81;5072317;28;20099;-65
2022/11/06 10:25:46;;;;;;;7.28;3.53;;;;;;;18.68;54.40;96403.41;5072960;28;20044;-64
2022/11/06 10:28:35;;;;;;;6.53;3.55;;;;;;;18.74;53.53;96407.41;5072907;28;20045;-62
2022/11/06 10:31:13;;;;;;;5.20;3.38;;;;;;;18.72;54.29;96396.94;5073197;28;20052;-62
2022/11/06 10:33:52;;;;;;;5.78;3.42;;;;;;;18.81;53.06;96406.88;5073747;28;20041;-60
2022/11/06 10:36:24;;;;;;;13.03;4.00;;;;;;;18.87;53.30;96405.56;5072785;28;20048;-61
2022/11/06 10:38:57;;;;;;;8.02;2.83;;;;;;;19.05;52.80;96400.69;5072759;28;20521;-63
2022/11/06 10:41:29;;;;;;;6.57;3.88;;;;;;;19.19;51.91;96402.34;5072602;28;20044;-62
2022/11/06 10:44:01;;;;;;;4.97;2.50;;;;;;;19.12;52.35;96395.81;5077209;28;20051;-65
2022/11/06 10:46:35;;;;;;;4.47;3.35;;;;;;;19.17;51.69;96396.31;5092428;28;20452;-65
2022/11/06 10:49:05;;;;;;;4.93;3.05;;;;;;;19.24;51.50;96393.19;5079378;28;20049;-60
2022/11/06 10:52:03;;;;;;;7.20;3.88;;;;;;;19.20;50.85;96392.56;5072484;28;20389;-62
2022/11/06 10:54:45;;;;;;;8.93;3.33;;;;;;;19.04;51.53;96383.13;5081419;28;20056;-63
2022/11/06 10:57:32;;;;;;;6.88;3.40;;;;;;;19.08;51.64;96390.88;5091903;28;20056;-64
2022/11/06 11:00:01;;;;;;;8.07;3.50;;;;;;;19.08;51.83;96385.56;5092717;28;20445;-63
2022/11/06 11:02:33;;;;;;;4.75;3.50;;;;;;;19.10;52.16;96383.63;5092602;28;20044;-65
2022/11/06 11:05:00;;;;;;;8.05;3.38;;;;;;;19.19;51.90;96375.84;5090495;28;20052;-64
2022/11/06 11:07:31;;;;;;;5.88;3.20;;;;;;;19.24;50.07;96377.28;5091938;28;20094;-62
2022/11/06 11:10:20;;;;;;;;;;;;;;;19.18;50.53;96373.31;5093244;28;20044;-62
2022/11/06 11:12:48;;;;;;;9.80;3.58;;;;;;;19.04;51.11;96377.81;5092572;28;19920;-62
2022/11/06 11:15:18;;;;;;;3.75;3.00;;;;;;;19.04;51.29;96369.84;5090792;28;20047;-63
2022/11/06 11:18:10;;;;;;;9.05;3.63;;;;;;;19.06;51.34;96367.09;5082805;28;20137;-60
2022/11/06 11:20:40;;;;;;;4.07;3.13;;;;;;;19.19;50.67;96364.38;5075839;28;20048;-62
2022/11/06 11:23:15;;;;;;;6.60;3.33;;;;;;;19.33;50.92;96371.31;5071837;28;20063;-60
2022/11/06 11:25:47;;;;;;;4.20;3.30;;;;;;;19.25;50.29;96371.88;5073320;28;20113;-62
2022/11/06 11:28:28;;;;;;;4.47;3.60;;;;;;;19.15;49.86;96365.59;5073321;28;20496;-64
2022/11/06 11:31:07;;;;;;;9.88;3.05;;;;;;;19.02;50.32;96363.81;5075980;28;20452;-63
2022/11/06 11:33:35;;;;;;;5.07;3.40;;;;;;;18.96;51.13;96364.28;5075838;28;20045;-63
2022/11/06 11:36:05;;;;;;;6.97;3.38;;;;;;;19.01;51.17;96367.44;5080845;28;20047;-61
2022/11/06 11:38:35;;;;;;;5.22;3.30;;;;;;;19.04;50.46;96361.06;5096322;28;20058;-64
2022/11/06 11:41:22;;;;;;;4.13;3.25;;;;;;;19.00;50.74;96371.06;5095922;28;20506;-63
2022/11/06 11:43:58;;;;;;;6.25;4.03;;;;;;;18.92;51.21;96373.41;5095792;28;20139;-63
2022/11/06 11:46:26;;;;;;;6.65;3.60;;;;;;;18.85;51.01;96367.75;5087482;28;20447;-60
2022/11/06 11:48:56;;;;;;;6.70;3.20;;;;;;;18.90;51.17;96370.88;5075532;28;20052;-62
2022/11/06 11:51:33;;;;;;;9.55;4.80;;;;;;;18.85;50.76;96361.59;5090475;28;20048;-63
2022/11/06 11:54:07;;;;;;;13.50;4.55;;;;;;;18.80;50.90;96359.28;5095699;28;20164;-63
2022/11/06 11:56:46;;;;;;;8.18;4.40;;;;;;;18.80;50.92;96357.50;5086257;28;20095;-61
2022/11/06 11:59:19;;;;;;;5.80;3.72;;;;;;;18.87;50.68;96357.03;5075323;28;20059;-61
2022/11/06 12:01:47;;;;;;;7.30;4.05;;;;;;;18.92;51.15;96357.53;5075062;28;20041;-63
2022/11/06 12:04:21;;;;;;;12.52;5.10;;;;;;;19.02;51.46;96357.69;5075279;28;20542;-60